createdAt,value
2019-05-01T00:01:28.557Z,47.64
2019-05-01T00:04:10.556Z,47.78
2019-05-01T00:06:45.046Z,47.53
2019-05-01T00:09:16.809Z,47.57
2019-05-01T00:11:47.134Z,47.76
2019-05-01T00:14:17.844Z,47.41
2019-05-01T00:16:48.609Z,47.25
2019-05-01T00:19:19.061Z,47.47
2019-05-01T00:21:49.631Z,47.53
2019-05-01T00:24:20.140Z,47.64
2019-05-01T00:26:51.481Z,47.38
2019-05-01T00:29:21.932Z,47.29
2019-05-01T00:31:52.569Z,47.53
2019-05-01T00:34:22.998Z,46.48
2019-05-01T00:36:53.783Z,46.84
2019-05-01T00:39:24.087Z,46.63
2019-05-01T00:41:54.542Z,46.08
2019-05-01T00:44:25.235Z,46.12
2019-05-01T00:46:55.598Z,46.27
2019-05-01T00:49:25.879Z,46.23
2019-05-01T00:51:56.653Z,46.01
2019-05-01T00:54:27.799Z,45.85
2019-05-01T00:57:19.805Z,45.97
2019-05-01T00:59:58.870Z,45.99
2019-05-01T01:02:41.156Z,45.91
2019-05-01T01:05:11.808Z,46.00
2019-05-01T01:07:42.080Z,46.22
2019-05-01T01:10:12.744Z,45.70
2019-05-01T01:12:43.411Z,45.91
2019-05-01T01:15:13.898Z,45.39
2019-05-01T01:17:44.215Z,45.32
2019-05-01T01:20:15.405Z,45.30
2019-05-01T01:22:45.895Z,45.55
2019-05-01T01:25:16.238Z,45.01
2019-05-01T01:27:46.995Z,45.05
2019-05-01T01:30:17.873Z,45.27
2019-05-01T01:32:48.192Z,45.09
2019-05-01T01:35:18.855Z,45.42
2019-05-01T01:37:49.573Z,45.73
2019-05-01T01:40:20.312Z,45.77
2019-05-01T01:42:52.884Z,45.58
2019-05-01T01:45:40.527Z,46.12
2019-05-01T01:48:17.482Z,46.53
2019-05-01T01:50:49.085Z,45.97
2019-05-01T01:53:22.075Z,46.31
2019-05-01T01:55:52.660Z,46.62
2019-05-01T01:58:23.580Z,47.09
2019-05-01T02:01:09.504Z,47.07
2019-05-01T02:03:39.284Z,47.08
2019-05-01T02:06:09.892Z,46.96
2019-05-01T02:08:40.695Z,47.00
2019-05-01T02:11:11.499Z,46.86
2019-05-01T02:13:42.363Z,47.00
2019-05-01T02:16:12.678Z,46.93
2019-05-01T02:18:42.998Z,46.81
2019-05-01T02:21:13.425Z,47.43
2019-05-01T02:23:43.748Z,47.11
2019-05-01T02:26:16.314Z,47.33
2019-05-01T02:28:57.417Z,47.62
2019-05-01T02:31:39.718Z,47.62
2019-05-01T02:34:11.164Z,48.07
2019-05-01T02:36:44.192Z,48.31
2019-05-01T02:39:17.161Z,48.19
2019-05-01T02:41:49.323Z,48.20
2019-05-01T02:44:25.742Z,48.25
2019-05-01T02:46:58.360Z,48.34
2019-05-01T02:49:36.076Z,48.74
2019-05-01T02:52:08.241Z,48.61
2019-05-01T02:54:41.698Z,48.86
2019-05-01T02:57:17.462Z,49.02
2019-05-01T02:59:52.523Z,48.87
2019-05-01T03:02:26.469Z,49.21
2019-05-01T03:04:58.182Z,49.14
2019-05-01T03:07:31.651Z,49.18
2019-05-01T03:10:03.771Z,49.08
2019-05-01T03:12:38.108Z,49.15
2019-05-01T03:15:10.411Z,49.30
2019-05-01T03:18:14.085Z,49.52
2019-05-01T03:20:54.165Z,49.71
2019-05-01T03:23:37.331Z,49.90
2019-05-01T03:26:08.225Z,50.03
2019-05-01T03:28:39.944Z,50.06
2019-05-01T03:31:10.291Z,50.09
2019-05-01T03:33:41.126Z,49.75
2019-05-01T03:36:12.240Z,49.91
2019-05-01T03:38:42.973Z,49.54
2019-05-01T03:41:13.460Z,50.06
2019-05-01T03:43:44.240Z,50.30
2019-05-01T03:46:14.859Z,50.08
2019-05-01T03:48:45.948Z,50.34
2019-05-01T03:51:16.274Z,50.39
2019-05-01T03:53:46.767Z,50.33
2019-05-01T03:56:17.849Z,50.59
2019-05-01T03:58:48.124Z,50.74
2019-05-01T04:01:40.983Z,50.71
2019-05-01T04:04:15.379Z,50.70
2019-05-01T04:06:46.464Z,50.75
2019-05-01T04:09:17.171Z,50.61
2019-05-01T04:11:47.964Z,50.23
2019-05-01T04:14:18.747Z,50.34
2019-05-01T04:16:52.990Z,49.97
2019-05-01T04:19:24.104Z,50.08
2019-05-01T04:22:03.978Z,49.96
2019-05-01T04:24:34.493Z,49.53
2019-05-01T04:27:06.599Z,49.40
2019-05-01T04:29:51.181Z,49.09
2019-05-01T04:32:24.827Z,48.80
2019-05-01T04:35:17.590Z,48.40
2019-05-01T04:37:48.239Z,48.80
2019-05-01T04:40:20.228Z,48.56
2019-05-01T04:42:51.052Z,48.46
2019-05-01T04:45:23.363Z,48.39
2019-05-01T04:47:54.271Z,48.88
2019-05-01T04:50:24.754Z,48.98
2019-05-01T04:52:55.170Z,48.34
2019-05-01T04:55:26.008Z,48.57
2019-05-01T04:57:56.579Z,48.78
2019-05-01T05:00:27.376Z,48.52
2019-05-01T05:03:08.073Z,48.55
2019-05-01T05:05:38.653Z,48.80
2019-05-01T05:08:10.458Z,48.81
2019-05-01T05:10:41.417Z,48.02
2019-05-01T05:13:23.435Z,48.04
2019-05-01T05:16:05.463Z,47.48
2019-05-01T05:18:35.938Z,47.48
2019-05-01T05:21:06.351Z,46.80
2019-05-01T05:23:36.729Z,47.23
2019-05-01T05:26:07.572Z,47.33
2019-05-01T05:28:38.951Z,47.15
2019-05-01T05:31:11.486Z,46.79
2019-05-01T05:33:43.638Z,47.07
2019-05-01T05:36:17.183Z,46.88
2019-05-01T05:38:53.963Z,46.92
2019-05-01T05:41:25.021Z,46.70
2019-05-01T05:43:55.899Z,46.66
2019-05-01T05:46:26.692Z,46.83
2019-05-01T05:48:57.120Z,46.93
2019-05-01T05:51:49.647Z,46.71
2019-05-01T05:54:44.026Z,46.44
2019-05-01T05:57:24.773Z,46.74
2019-05-01T06:00:01.101Z,46.88
2019-05-01T06:02:49.017Z,46.79
2019-05-01T06:05:36.035Z,46.60
2019-05-01T06:08:23.365Z,46.44
2019-05-01T06:11:11.891Z,46.02
2019-05-01T06:13:58.974Z,45.68
2019-05-01T06:16:40.436Z,45.67
2019-05-01T06:19:32.836Z,45.49
2019-05-01T06:22:22.845Z,45.65
2019-05-01T06:24:59.011Z,44.80
2019-05-01T06:27:29.995Z,45.12
2019-05-01T06:30:01.615Z,43.78
2019-05-01T06:32:33.466Z,43.84
2019-05-01T06:35:05.174Z,43.71
2019-05-01T06:38:03.792Z,43.72
2019-05-01T06:40:42.194Z,42.79
2019-05-01T06:43:32.688Z,42.45
2019-05-01T06:46:26.665Z,42.16
2019-05-01T06:49:00.915Z,42.22
2019-05-01T06:51:47.916Z,41.97
2019-05-01T06:54:19.013Z,41.77
2019-05-01T06:56:50.867Z,42.18
2019-05-01T06:59:26.248Z,42.50
2019-05-01T07:01:58.474Z,41.45
2019-05-01T07:04:32.468Z,41.12
2019-05-01T07:07:06.926Z,41.15
2019-05-01T07:09:37.478Z,40.91
2019-05-01T07:12:13.880Z,40.66
2019-05-01T07:14:47.072Z,40.99
2019-05-01T07:17:17.319Z,41.05
2019-05-01T07:20:05.323Z,41.63
2019-05-01T07:22:37.013Z,40.21
2019-05-01T07:25:09.564Z,40.40
2019-05-01T07:27:40.372Z,39.91
2019-05-01T07:30:20.970Z,40.23
2019-05-01T07:32:51.550Z,39.53
2019-05-01T07:35:22.161Z,39.36
2019-05-01T07:37:53.433Z,39.35
2019-05-01T07:40:29.029Z,39.24
2019-05-01T07:43:02.600Z,39.70
2019-05-01T07:45:43.475Z,39.87
2019-05-01T07:48:13.475Z,40.64
2019-05-01T07:50:43.976Z,40.26
2019-05-01T07:53:14.589Z,39.16
2019-05-01T07:55:48.561Z,38.68
2019-05-01T07:58:18.167Z,38.55
2019-05-01T08:01:27.473Z,38.31
2019-05-01T08:03:57.875Z,38.52
2019-05-01T08:06:28.526Z,39.41
2019-05-01T08:08:58.934Z,39.23
2019-05-01T08:11:29.175Z,38.87
2019-05-01T08:14:07.356Z,37.70
2019-05-01T08:16:32.083Z,36.93
2019-05-01T08:19:18.325Z,38.18
2019-05-01T08:22:01.815Z,38.71
2019-05-01T08:24:31.753Z,36.58
2019-05-01T08:27:02.371Z,35.83
2019-05-01T08:29:57.551Z,36.43
2019-05-01T08:32:33.811Z,36.15
2019-05-01T08:35:09.098Z,35.38
2019-05-01T08:37:39.732Z,35.78
2019-05-01T08:40:10.132Z,34.79
2019-05-01T08:42:42.530Z,34.80
2019-05-01T08:45:30.729Z,34.94
2019-05-01T08:48:12.440Z,34.98
2019-05-01T08:50:42.954Z,34.26
2019-05-01T08:53:13.301Z,34.56
2019-05-01T08:55:45.206Z,34.25
2019-05-01T08:58:16.188Z,35.04
2019-05-01T09:00:46.480Z,34.84
2019-05-01T09:03:18.595Z,34.85
2019-05-01T09:05:52.219Z,35.00
2019-05-01T09:08:21.595Z,35.05
2019-05-01T09:10:54.857Z,34.18
2019-05-01T09:13:24.901Z,35.17
2019-05-01T09:15:55.217Z,35.14
2019-05-01T09:18:25.656Z,33.69
2019-05-01T09:20:58.051Z,33.61
2019-05-01T09:23:28.426Z,32.89
2019-05-01T09:26:33.476Z,33.56
2019-05-01T09:29:11.008Z,33.57
2019-05-01T09:31:40.022Z,35.97
2019-05-01T09:34:14.081Z,35.08
2019-05-01T09:36:42.945Z,35.79
2019-05-01T09:39:15.348Z,35.38
2019-05-01T09:41:47.464Z,35.86
2019-05-01T09:44:18.253Z,35.71
2019-05-01T09:46:48.780Z,34.42
2019-05-01T09:49:20.499Z,33.83
2019-05-01T09:52:18.998Z,32.63
2019-05-01T09:54:52.595Z,31.83
2019-05-01T09:57:25.222Z,34.34
2019-05-01T09:59:55.768Z,34.23
2019-05-01T10:02:26.338Z,32.86
2019-05-01T10:04:56.629Z,32.27
2019-05-01T10:07:28.948Z,32.38
2019-05-01T10:09:59.418Z,33.14
2019-05-01T10:12:29.914Z,32.58
2019-05-01T10:15:00.198Z,31.89
2019-05-01T10:17:30.949Z,33.33
2019-05-01T10:20:01.347Z,32.59
2019-05-01T10:22:32.988Z,33.59
2019-05-01T10:25:04.057Z,33.10
2019-05-01T10:27:37.419Z,31.52
2019-05-01T10:30:27.468Z,31.02
2019-05-01T10:33:04.548Z,30.97
2019-05-01T10:35:54.074Z,31.42
2019-05-01T10:38:24.485Z,33.28
2019-05-01T10:40:55.114Z,33.32
2019-05-01T10:43:25.774Z,32.32
2019-05-01T10:45:56.224Z,32.11
2019-05-01T10:48:26.640Z,32.97
2019-05-01T10:50:57.385Z,32.63
2019-05-01T10:53:27.660Z,33.57
2019-05-01T10:55:58.928Z,33.57
2019-05-01T10:58:29.723Z,31.14
2019-05-01T11:01:08.144Z,32.95
2019-05-01T11:03:39.089Z,32.79
2019-05-01T11:06:09.377Z,33.71
2019-05-01T11:08:39.715Z,33.24
2019-05-01T11:11:10.410Z,34.10
2019-05-01T11:13:40.823Z,34.51
2019-05-01T11:16:12.191Z,34.07
2019-05-01T11:18:42.932Z,33.32
2019-05-01T11:21:13.218Z,32.15
2019-05-01T11:23:43.614Z,30.72
2019-05-01T11:26:14.483Z,30.72
2019-05-01T11:28:44.919Z,30.46
2019-05-01T11:31:19.130Z,31.16
2019-05-01T11:34:20.736Z,30.82
2019-05-01T11:37:28.224Z,30.82
2019-05-01T11:40:12.244Z,31.91
2019-05-01T11:42:42.672Z,31.91
2019-05-01T11:45:13.204Z,30.70
2019-05-01T11:47:43.860Z,32.45
2019-05-01T11:50:14.569Z,32.07
2019-05-01T11:52:44.847Z,32.50
2019-05-01T11:55:15.693Z,31.60
2019-05-01T11:57:46.259Z,32.61
2019-05-01T12:00:18.339Z,31.47
2019-05-01T12:02:49.237Z,31.43
2019-05-01T12:05:19.517Z,31.43
2019-05-01T12:07:50.336Z,31.26
2019-05-01T12:10:21.080Z,30.62
2019-05-01T12:12:51.360Z,30.62
2019-05-01T12:15:22.242Z,31.04
2019-05-01T12:17:52.636Z,29.74
2019-05-01T12:20:23.611Z,29.74
2019-05-01T12:22:54.017Z,30.16
2019-05-01T12:25:24.710Z,30.30
2019-05-01T12:27:54.992Z,30.30
2019-05-01T12:30:25.517Z,29.34
2019-05-01T12:32:56.259Z,30.48
2019-05-01T12:35:27.596Z,31.90
2019-05-01T12:38:00.973Z,31.98
2019-05-01T12:40:31.255Z,33.08
2019-05-01T12:43:02.110Z,33.08
2019-05-01T12:45:32.811Z,33.47
2019-05-01T12:48:05.034Z,34.32
2019-05-01T12:50:35.367Z,34.85
2019-05-01T12:53:32.648Z,34.22
2019-05-01T12:56:27.872Z,33.77
2019-05-01T12:58:58.296Z,33.67
2019-05-01T13:01:29.063Z,35.15
2019-05-01T13:03:59.386Z,35.15
2019-05-01T13:06:29.658Z,33.26
2019-05-01T13:09:00.450Z,32.42
2019-05-01T13:11:32.388Z,31.13
2019-05-01T13:14:03.238Z,32.73
2019-05-01T13:16:33.500Z,33.20
2019-05-01T13:19:03.820Z,31.28
2019-05-01T13:21:34.289Z,30.21
2019-05-01T13:27:42.427Z,29.45
2019-05-01T13:30:37.633Z,29.91
2019-05-01T13:33:08.117Z,28.33
2019-05-01T13:35:38.601Z,27.58
2019-05-01T13:38:09.251Z,28.42
2019-05-01T13:40:39.950Z,28.05
2019-05-01T13:43:10.512Z,27.61
2019-05-01T13:45:40.772Z,29.75
2019-05-01T13:48:11.072Z,29.65
2019-05-01T13:50:41.547Z,30.67
2019-05-01T13:53:12.073Z,31.60
2019-05-01T13:56:17.968Z,32.09
2019-05-01T13:58:48.647Z,32.32
2019-05-01T14:01:19.775Z,33.13
2019-05-01T14:03:50.340Z,33.76
2019-05-01T14:06:21.112Z,33.69
2019-05-01T14:08:51.767Z,34.22
2019-05-01T14:11:22.080Z,35.45
2019-05-01T14:13:52.516Z,35.54
2019-05-01T14:16:22.811Z,36.12
2019-05-01T14:18:53.190Z,37.03
2019-05-01T14:21:30.585Z,37.17
2019-05-01T14:24:07.954Z,36.69
2019-05-01T14:26:38.607Z,37.10
2019-05-01T14:29:09.288Z,36.37
2019-05-01T14:31:39.626Z,35.47
2019-05-01T14:34:10.041Z,37.26
2019-05-01T14:36:40.703Z,37.82
2019-05-01T14:39:10.977Z,38.48
2019-05-01T14:41:41.404Z,38.64
2019-05-01T14:44:12.052Z,38.11
2019-05-01T14:46:42.608Z,38.28
2019-05-01T14:49:12.877Z,38.79
2019-05-01T14:51:43.281Z,38.32
2019-05-01T14:54:13.851Z,38.24
2019-05-01T14:56:44.244Z,38.08
2019-05-01T14:59:14.683Z,39.34
2019-05-01T15:01:47.250Z,38.23
2019-05-01T15:04:17.397Z,38.99
2019-05-01T15:11:16.483Z,38.32
2019-05-01T15:13:53.428Z,38.77
2019-05-01T15:16:29.826Z,38.44
2019-05-01T15:19:25.429Z,38.44
2019-05-01T15:21:55.738Z,38.62
2019-05-01T15:24:26.315Z,37.86
2019-05-01T15:26:57.053Z,37.86
2019-05-01T15:29:27.343Z,37.02
2019-05-01T15:31:57.692Z,36.37
2019-05-01T15:34:28.089Z,36.23
2019-05-01T15:36:58.376Z,35.77
2019-05-01T15:39:36.713Z,35.77
2019-05-01T15:42:29.918Z,36.07
2019-05-01T15:45:00.401Z,36.44
2019-05-01T15:47:31.183Z,35.81
2019-05-01T15:50:01.473Z,35.40
2019-05-01T15:52:31.932Z,34.75
2019-05-01T15:55:02.609Z,33.76
2019-05-01T15:57:33.213Z,34.02
2019-05-01T16:00:03.989Z,34.73
2019-05-01T16:02:35.291Z,34.30
2019-05-01T16:05:06.132Z,35.22
2019-05-01T16:07:36.455Z,36.87
2019-05-01T16:10:11.846Z,37.62
2019-05-01T16:13:02.391Z,35.63
2019-05-01T16:15:34.501Z,35.63
2019-05-01T16:18:05.266Z,38.20
2019-05-01T16:20:35.622Z,37.49
2019-05-01T16:23:06.200Z,39.77
2019-05-01T16:25:36.709Z,40.74
2019-05-01T16:28:06.995Z,40.09
2019-05-01T16:30:37.434Z,42.37
2019-05-01T16:33:07.859Z,42.15
2019-05-01T16:35:38.135Z,42.57
2019-05-01T16:38:22.747Z,42.69
2019-05-01T16:40:59.996Z,42.34
2019-05-01T16:43:30.345Z,43.83
2019-05-01T16:46:00.979Z,44.03
2019-05-01T16:48:31.262Z,43.86
2019-05-01T16:51:01.957Z,45.18
2019-05-01T16:53:32.623Z,46.07
2019-05-01T16:56:03.053Z,47.00
2019-05-01T16:58:33.884Z,47.87
2019-05-01T17:01:16.957Z,49.40
2019-05-01T17:04:06.192Z,50.69
2019-05-01T17:06:45.369Z,52.08
2019-05-01T17:09:35.334Z,53.05
2019-05-01T17:12:06.026Z,53.94
2019-05-01T17:14:36.558Z,55.18
2019-05-01T17:17:10.151Z,55.49
2019-05-01T17:19:40.467Z,56.57
2019-05-01T17:22:14.383Z,57.07
2019-05-01T17:24:43.213Z,57.42
2019-05-01T17:27:13.730Z,57.88
2019-05-01T17:29:44.209Z,58.43
2019-05-01T17:32:16.833Z,58.83
2019-05-01T17:34:47.368Z,59.04
2019-05-01T17:37:17.706Z,58.38
2019-05-01T17:39:48.436Z,59.31
2019-05-01T17:42:19.098Z,60.01
2019-05-01T17:44:49.379Z,60.25
2019-05-01T17:47:22.470Z,61.34
2019-05-01T17:49:52.211Z,61.73
2019-05-01T17:52:22.520Z,61.63
2019-05-01T17:54:54.186Z,61.70
2019-05-01T17:57:24.468Z,62.19
2019-05-01T17:59:56.850Z,62.69
2019-05-01T18:02:40.571Z,62.34
2019-05-01T18:05:26.809Z,61.97
2019-05-01T18:07:57.246Z,62.07
2019-05-01T18:10:27.908Z,62.60
2019-05-01T18:12:58.190Z,63.37
2019-05-01T18:15:28.534Z,63.24
2019-05-01T18:17:59.059Z,63.40
2019-05-01T18:20:29.611Z,63.67
2019-05-01T18:23:27.694Z,63.49
2019-05-01T18:26:08.736Z,62.72
2019-05-01T18:28:41.007Z,62.75
2019-05-01T18:31:16.660Z,62.27
2019-05-01T18:33:46.938Z,62.58
2019-05-01T18:36:19.884Z,62.27
2019-05-01T18:38:58.607Z,62.78
2019-05-01T18:41:34.321Z,62.63
2019-05-01T18:44:05.376Z,62.44
2019-05-01T18:46:37.373Z,62.39
2019-05-01T18:49:07.889Z,62.21
2019-05-01T18:51:40.697Z,62.20
2019-05-01T18:54:10.735Z,62.28
2019-05-01T18:56:41.207Z,62.74
2019-05-01T18:59:11.528Z,62.30
2019-05-01T19:01:43.963Z,62.13
2019-05-01T19:04:18.524Z,62.64
2019-05-01T19:06:46.785Z,62.73
2019-05-01T19:09:29.359Z,62.74
2019-05-01T19:11:49.763Z,63.44
2019-05-01T19:14:23.558Z,63.32
2019-05-01T19:16:53.288Z,63.70
2019-05-01T19:19:23.632Z,63.13
2019-05-01T19:21:55.086Z,63.83
2019-05-01T19:24:25.659Z,63.73
2019-05-01T19:26:55.958Z,63.62
2019-05-01T19:29:31.463Z,63.69
2019-05-01T19:31:58.507Z,63.21
2019-05-01T19:34:29.193Z,63.36
2019-05-01T19:36:59.803Z,64.18
2019-05-01T19:39:42.628Z,63.81
2019-05-01T19:42:02.855Z,64.41
2019-05-01T19:44:33.576Z,64.37
2019-05-01T19:47:04.107Z,64.66
2019-05-01T19:49:34.644Z,65.53
2019-05-01T19:52:05.537Z,65.85
2019-05-01T19:54:35.874Z,65.65
2019-05-01T19:57:06.379Z,66.18
2019-05-01T19:59:37.013Z,65.58
2019-05-01T20:02:07.766Z,65.33
2019-05-01T20:04:38.323Z,65.73
2019-05-01T20:07:10.654Z,65.67
2019-05-01T20:09:40.986Z,66.12
2019-05-01T20:12:11.751Z,66.41
2019-05-01T20:14:42.035Z,66.03
2019-05-01T20:17:12.392Z,66.42
2019-05-01T20:19:42.999Z,66.08
2019-05-01T20:22:13.280Z,66.14
2019-05-01T20:24:45.823Z,65.94
2019-05-01T20:27:17.380Z,66.23
2019-05-01T20:29:47.693Z,66.78
2019-05-01T20:32:21.058Z,66.06
2019-05-01T20:34:52.850Z,65.40
2019-05-01T20:37:22.404Z,65.21
2019-05-01T20:39:53.084Z,65.19
2019-05-01T20:42:23.419Z,65.53
2019-05-01T20:45:04.449Z,64.38
2019-05-01T20:47:34.789Z,64.21
2019-05-01T20:49:58.213Z,64.87
2019-05-01T20:52:28.529Z,64.41
2019-05-01T20:54:59.119Z,64.99
2019-05-01T20:57:33.321Z,65.11
2019-05-01T21:00:04.171Z,65.07
2019-05-01T21:02:38.857Z,65.29
2019-05-01T21:05:24.180Z,65.35
2019-05-01T21:08:13.109Z,66.83
2019-05-01T21:10:53.951Z,66.74
2019-05-01T21:13:25.092Z,67.34
2019-05-01T21:16:01.706Z,67.58
2019-05-01T21:18:29.193Z,67.83
2019-05-01T21:20:59.599Z,68.23
2019-05-01T21:23:30.373Z,68.94
2019-05-01T21:26:00.752Z,68.71
2019-05-01T21:28:31.154Z,68.14
2019-05-01T21:31:03.713Z,69.15
2019-05-01T21:33:34.299Z,68.84
2019-05-01T21:36:08.405Z,68.24
2019-05-01T21:38:37.888Z,68.03
2019-05-01T21:41:09.624Z,68.62
2019-05-01T21:43:39.897Z,69.20
2019-05-01T21:46:10.221Z,70.02
2019-05-01T21:48:40.882Z,70.39
2019-05-01T21:51:12.598Z,70.49
2019-05-01T21:53:46.408Z,70.94
2019-05-01T21:56:15.131Z,71.76
2019-05-01T21:58:45.517Z,71.72
2019-05-01T22:01:15.860Z,71.75
2019-05-01T22:03:46.611Z,72.04
2019-05-01T22:06:17.312Z,72.21
2019-05-01T22:08:47.599Z,72.84
2019-05-01T22:11:18.221Z,73.68
2019-05-01T22:13:48.681Z,76.57
2019-05-01T22:16:24.667Z,77.71
2019-05-01T22:19:10.798Z,79.00
2019-05-01T22:21:52.846Z,79.21
2019-05-01T22:24:45.877Z,80.08
2019-05-01T22:27:22.920Z,78.95
2019-05-01T22:29:59.609Z,80.51
2019-05-01T22:32:39.918Z,81.22
2019-05-01T22:35:19.419Z,80.12
2019-05-01T22:37:49.793Z,80.61
2019-05-01T22:40:28.960Z,82.09
2019-05-01T22:42:59.594Z,83.23
2019-05-01T22:45:30.047Z,84.57
2019-05-01T22:48:00.672Z,84.56
2019-05-01T22:50:31.038Z,85.46
2019-05-01T22:53:01.513Z,86.96
2019-05-01T22:55:32.086Z,86.25
2019-05-01T22:58:02.456Z,85.30
2019-05-01T23:00:54.152Z,86.65
2019-05-01T23:03:29.715Z,86.79
2019-05-01T23:06:01.944Z,86.41
2019-05-01T23:08:32.030Z,85.45
2019-05-01T23:11:02.703Z,85.07
2019-05-01T23:13:33.286Z,84.97
2019-05-01T23:16:05.147Z,85.88
2019-05-01T23:18:35.878Z,85.24
2019-05-01T23:21:09.781Z,84.65
2019-05-01T23:23:38.903Z,83.54
2019-05-01T23:26:11.638Z,82.84
2019-05-01T23:28:41.875Z,82.33
2019-05-01T23:31:12.681Z,83.22
2019-05-01T23:33:45.801Z,83.14
2019-05-01T23:36:23.402Z,83.50
2019-05-01T23:38:48.432Z,81.96
2019-05-01T23:41:24.904Z,81.38
2019-05-01T23:43:51.110Z,81.27
2019-05-01T23:46:22.011Z,79.47
2019-05-01T23:48:52.797Z,79.99
2019-05-01T23:51:23.706Z,81.01
2019-05-01T23:53:55.237Z,81.38
2019-05-01T23:56:25.612Z,80.52
2019-05-01T23:58:56.271Z,80.10
